Prince George Airport
CYXS : rendu visible

Aérodrome :











RETROUVEZ-NOUS SUR...

 
LOGIN :

S'inscrire | Disclaimer

   EN    FR    IT 

 









Légende :    VFR   VFR Marginal   IFR   IFR Intensif   IFR Très Intensif
Visi : 
Plafond : 
>= 8 km
>= 3000ft
5 à 8 km
1000 à 3000 ft
1500m à 5 km
500 à 1000 ft
800 à 1500m
200 à 500 ft
< 800m
< 200 ft
Symboles :   Orages  Brouillard  Fortes neiges  Fortes précipitations  Vent > 20 kt






- Altitude de l'aérodrome : 2267 ft
- Code IATA : YXS


CYXS - Prince George

DERNIER METAR :
  • 051600Z AUTO 26009KT 9SM OVC080 14/09 A3014 RMK SLP217 DENSITY ALT 2400FT

METARs EXPIRÉS :
  • 051500Z AUTO 24006KT 9SM BKN075 14/09 A3014 RMK SLP219 DENSITY ALT 2300FT
  • 051400Z AUTO 17005KT 150V220 9SM OVC060 12/10 A3014 RMK SLP218

TAF TAF CYXS
Valide du 05 à 13h jusqu'au 06 à 01h UTC


051239Z 0513/0601 18005KT P6SM FEW008 SCT015 OVC040
TEMPO 0513/0518 P6SM -SHRA OVC015
FM051800 18007KT P6SM FEW030 BKN060
TEMPO 0518/0601 P6SM -SHRA VCTS SCT030 BKN060CB RMK FCST BASED ON AUTO OBS. NXT FCST BY 051900Z
FIR CZVR / Amérique du Nord



MET'MAP, la Météo Aéronautique d'un coup d'oeil ! - Copyright ORBIFLY Décembre 2007 - Disclaimer

ORBIFLY MET'MAP TEAM :

Programmation & Développement : Alexandra Zaïnal
Sur une idée originale de : Baudouin d'Aumeries
Assistance à la programmation : Marc-Olivier Méhu
Soutien technique & logistique : Manuel Goepfert

Contact : metmap@orbifly.com




SOURCES & CREDITS :

   NOAA       Earth
Advisory